.
WxDataArchive / Data Records for 2013-07-10
2013-07-09 July 2013 2013-07-11

Data Records for Wednesday, 10 July 2013

Time	Temp	Chill	HIndex	Humid	Dewpt	 Wind 	HiWind	WindDir	Rain 	Barom 
-----	----	-----	------	-----	-----	------	------	-------	-----	----- 
00:00	80.3	80.3	84.7	79	73.2	0	1	270	0.00	29.893 
00:05	80.3	80.3	84.7	79	73.2	0	2	270	0.00	29.893 
00:10	80.3	80.3	84.9	80	73.5	0	1	270	0.00	29.893 
00:15	80.1	80.1	84.4	80	73.4	0	2	270	0.00	29.888 
00:20	80.1	80.1	84.4	80	73.4	0	2	270	0.00	29.888 
00:25	79.9	79.9	84.0	80	73.2	0	2	315	0.00	29.888 
00:30	79.9	79.9	84.0	80	73.2	0	3	315	0.00	29.886 
00:35	79.8	79.8	83.8	80	73.1	1	3	225	0.00	29.886 
00:40	79.8	79.8	83.8	80	73.1	0	2	225	0.00	29.886 
00:45	79.8	79.8	83.8	80	73.1	0	2	225	0.00	29.885 
00:50	79.6	79.6	83.4	80	72.9	0	2	225	0.00	29.885 
00:55	79.6	79.6	83.4	80	72.9	0	1	225	0.00	29.885 
01:00	79.6	79.6	83.4	80	72.9	0	2	225	0.00	29.885 
01:05	79.4	79.4	83.0	80	72.7	0	2	225	0.00	29.885 
01:10	79.4	79.4	83.0	80	72.7	0	3	225	0.00	29.885 
01:15	79.2	79.2	82.6	80	72.5	0	2	225	0.00	29.883 
01:20	79.2	79.2	82.6	80	72.5	0	3	225	0.00	29.883 
01:25	79.2	79.2	82.6	80	72.5	0	3	225	0.00	29.883 
01:30	79.2	79.2	82.6	80	72.5	0	3	248	0.00	29.882 
01:35	79.2	79.2	82.6	80	72.5	0	2	248	0.00	29.882 
01:40	79.0	79.0	82.2	80	72.3	0	2	248	0.00	29.882 
01:45	79.0	79.0	82.3	81	72.7	0	2	248	0.00	29.879 
01:50	79.0	79.0	82.3	81	72.7	0	1	248	0.00	29.879 
01:55	78.8	78.8	81.9	81	72.5	0	2	248	0.00	29.879 
02:00	78.8	78.8	81.9	81	72.5	0	1	248	0.00	29.878 
02:05	78.6	78.6	81.5	81	72.3	0	1	248	0.00	29.878 
02:10	78.6	78.6	81.5	81	72.3	0	1	248	0.00	29.878 
02:15	78.5	78.5	81.3	81	72.2	0	2	248	0.00	29.876 
02:20	78.5	78.5	81.3	81	72.2	0	2	248	0.00	29.876 
02:25	78.5	78.5	81.3	81	72.2	0	2	248	0.00	29.876 
02:30	78.3	78.3	80.9	81	72.0	0	1	248	0.00	29.872 
02:35	78.3	78.3	80.9	81	72.0	0	2	248	0.00	29.872 
02:40	78.3	78.3	80.9	81	72.0	0	1	248	0.00	29.872 
02:45	78.3	78.3	80.9	81	72.0	0	3	248	0.00	29.866 
02:50	78.1	78.1	80.5	81	71.8	0	2	248	0.00	29.866 
02:55	78.1	78.1	80.5	81	71.8	0	1	248	0.00	29.866 
03:00	78.1	78.1	80.5	81	71.8	0	2	248	0.00	29.863 
03:05	78.1	78.1	80.5	81	71.8	0	2	248	0.00	29.863 
03:10	78.1	78.1	80.5	81	71.8	0	2	248	0.00	29.863 
03:15	78.1	78.1	80.5	82	72.1	0	2	248	0.00	29.859 
03:20	78.1	78.1	80.5	82	72.1	0	2	248	0.00	29.859 
03:25	78.1	78.1	80.5	81	71.8	0	3	248	0.00	29.859 
03:30	78.1	78.1	80.5	81	71.8	0	2	248	0.00	29.857 
03:35	78.1	78.1	80.5	81	71.8	0	2	248	0.00	29.857 
03:40	78.1	78.1	80.5	81	71.8	1	4	248	0.00	29.857 
03:45	78.1	78.1	80.5	81	71.8	1	5	248	0.00	29.856 
03:50	78.1	78.1	80.5	81	71.8	0	2	248	0.00	29.856 
03:55	78.3	78.3	80.9	81	72.0	1	4	248	0.00	29.856 
04:00	78.3	78.3	80.9	81	72.0	0	2	270	0.00	29.855 
04:05	78.3	78.3	80.9	81	72.0	0	2	315	0.00	29.855 
04:10	78.3	78.3	80.9	81	72.0	0	2	315	0.00	29.855 
04:15	78.3	78.3	80.9	81	72.0	0	2	315	0.00	29.858 
04:20	78.1	78.1	80.5	81	71.8	0	1	315	0.00	29.858 
04:25	78.1	78.1	80.5	81	71.8	0	3	315	0.00	29.858 
04:30	78.1	78.1	80.5	81	71.8	0	2	338	0.00	29.857 
04:35	78.1	78.1	80.5	81	71.8	0	2	338	0.00	29.857 
04:40	78.1	78.1	80.5	81	71.8	1	3	248	0.00	29.857 
04:45	78.1	78.1	80.5	81	71.8	0	3	248	0.00	29.858 
04:50	78.1	78.1	80.5	81	71.8	0	2	248	0.00	29.858 
04:55	78.1	78.1	80.5	81	71.8	1	3	248	0.00	29.858 
05:00	78.1	78.1	80.5	82	72.1	0	2	248	0.00	29.857 
05:05	78.1	78.1	80.5	82	72.1	0	2	248	0.00	29.857 
05:10	78.1	78.1	80.5	82	72.1	1	4	225	0.00	29.857 
05:15	78.1	78.1	80.5	82	72.1	1	3	248	0.00	29.856 
05:20	77.9	77.9	80.2	82	71.9	0	1	248	0.00	29.856 
05:25	77.9	77.9	80.2	82	71.9	0	3	248	0.00	29.856 
05:30	77.9	77.9	80.2	83	72.3	1	4	248	0.00	29.854 
05:35	77.9	77.9	80.2	83	72.3	0	2	270	0.00	29.854 
05:40	77.7	77.7	79.8	83	72.1	0	3	270	0.00	29.854 
05:45	77.7	77.7	79.8	83	72.1	0	3	270	0.00	29.855 
05:50	77.6	77.6	79.6	83	72.0	0	2	270	0.00	29.855 
05:55	77.6	77.6	79.6	83	72.0	0	2	270	0.00	29.855 
06:00	77.6	77.6	79.6	84	72.4	0	2	270	0.00	29.853 
06:05	77.4	77.4	79.2	84	72.2	0	2	270	0.00	29.853 
06:10	77.4	77.4	79.2	84	72.2	0	2	270	0.00	29.853 
06:15	77.4	77.4	79.2	84	72.2	0	1	270	0.00	29.850 
06:20	77.2	77.2	78.8	84	72.0	0	3	270	0.00	29.850 
06:25	77.2	77.2	78.8	84	72.0	0	2	270	0.00	29.850 
06:30	77.2	77.2	78.8	84	72.0	0	2	270	0.00	29.848 
06:35	77.0	77.0	78.4	85	72.1	0	3	270	0.00	29.848 
06:40	77.0	77.0	78.4	85	72.1	0	2	270	0.00	29.848 
06:45	77.0	77.0	78.4	85	72.1	0	2	270	0.00	29.853 
06:50	77.0	77.0	78.4	85	72.1	0	3	270	0.00	29.853 
06:55	77.0	77.0	78.4	85	72.1	0	2	270	0.00	29.853 
07:00	77.0	77.0	78.4	85	72.1	0	2	270	0.00	29.852 
07:05	77.0	77.0	78.4	85	72.1	0	2	270	0.00	29.852 
07:10	77.2	77.2	78.8	85	72.3	0	2	270	0.00	29.852 
07:15	77.2	77.2	78.8	85	72.3	0	1	270	0.00	29.857 
07:20	77.2	77.2	78.8	85	72.3	0	2	270	0.00	29.857 
07:25	77.4	77.4	79.2	85	72.5	0	3	270	0.00	29.857 
07:30	77.2	77.2	78.8	85	72.3	0	1	270	0.00	29.851 
07:35	77.4	77.4	79.2	85	72.5	0	1	292	0.00	29.851 
07:40	77.4	77.4	79.2	85	72.5	0	1	292	0.00	29.851 
07:45	77.6	77.6	79.6	85	72.7	0	2	292	0.00	29.843 
07:50	77.9	77.9	80.2	84	72.7	0	1	292	0.00	29.843 
07:55	78.1	78.1	80.6	84	72.9	0	2	292	0.00	29.843 
08:00	78.5	78.5	81.4	83	72.9	0	2	315	0.00	29.843 
08:05	78.6	78.6	81.6	83	73.0	0	2	315	0.00	29.843 
08:10	78.8	78.8	82.0	83	73.2	0	2	315	0.00	29.843 
08:15	79.2	79.2	82.8	82	73.2	0	2	315	0.00	29.841 
08:20	79.4	79.4	83.1	81	73.0	0	3	315	0.00	29.841 
08:25	79.6	79.6	83.5	81	73.2	1	2	315	0.00	29.841 
08:30	79.8	79.8	83.9	81	73.4	1	3	315	0.00	29.843 
08:35	79.8	79.8	83.8	80	73.1	1	4	292	0.00	29.843 
08:40	80.1	80.1	84.4	80	73.4	1	3	292	0.00	29.843 
08:45	80.3	80.3	84.9	80	73.5	1	3	292	0.00	29.848 
08:50	80.5	80.5	85.3	80	73.7	1	3	292	0.00	29.848 
08:55	80.9	80.9	86.2	80	74.1	0	2	292	0.00	29.848 
09:00	81.1	81.1	86.3	78	73.6	1	3	292	0.00	29.847 
09:05	81.2	81.2	86.5	78	73.7	1	4	292	0.00	29.847 
09:10	81.4	81.4	86.9	78	73.9	1	4	292	0.00	29.847 
09:15	81.6	81.6	87.2	77	73.7	1	3	292	0.00	29.846 
09:20	81.8	81.8	87.6	77	73.9	1	3	292	0.00	29.846 
09:25	82.0	82.0	88.0	77	74.1	1	3	292	0.00	29.846 
09:30	82.2	82.2	88.5	77	74.2	1	4	292	0.00	29.842 
09:35	82.4	82.4	88.7	76	74.1	1	3	292	0.00	29.842 
09:40	82.6	82.6	89.2	76	74.2	1	4	292	0.00	29.842 
09:45	82.8	82.8	89.6	76	74.4	0	1	292	0.00	29.840 
09:50	83.0	83.0	89.8	75	74.2	1	5	292	0.00	29.840 
09:55	83.0	83.0	89.8	75	74.2	1	2	292	0.00	29.840 
10:00	83.0	83.0	89.8	75	74.2	1	4	292	0.00	29.839 
10:05	82.8	82.8	89.6	76	74.4	1	3	270	0.00	29.839 
10:10	83.0	83.0	90.1	76	74.6	1	3	270	0.00	29.839 
10:15	83.2	83.2	90.3	75	74.4	2	4	270	0.00	29.839 
10:20	83.2	83.2	90.0	74	74.0	2	4	270	0.00	29.839 
10:25	83.4	83.4	90.7	75	74.6	2	4	292	0.00	29.839 
10:30	83.4	83.4	90.4	74	74.2	1	2	292	0.00	29.837 
10:35	83.4	83.4	90.4	74	74.2	1	4	292	0.00	29.837 
10:40	83.6	83.6	91.2	75	74.8	1	2	270	0.00	29.837 
10:45	83.6	83.6	91.2	75	74.8	2	5	270	0.00	29.832 
10:50	83.8	83.8	91.7	75	75.0	1	3	270	0.00	29.832 
10:55	84.0	84.0	91.8	74	74.8	1	4	270	0.00	29.832 
11:00	83.8	83.8	91.7	75	75.0	1	3	315	0.00	29.826 
11:05	83.8	83.8	91.3	74	74.6	2	3	315	0.00	29.826 
11:10	83.8	83.8	91.3	74	74.6	1	4	315	0.00	29.826 
11:15	84.1	84.1	92.4	75	75.3	1	2	315	0.00	29.823 
11:20	84.5	84.5	93.0	74	75.3	1	3	315	0.00	29.823 
11:25	84.5	84.5	92.6	73	74.9	1	3	315	0.00	29.823 
11:30	84.9	84.9	93.6	73	75.3	1	2	338	0.00	29.820 
11:35	84.9	84.9	93.2	72	74.8	1	2	338	0.00	29.820 
11:40	84.7	84.7	93.1	73	75.1	1	2	338	0.00	29.820 
11:45	84.9	84.9	94.4	75	76.1	1	3	292	0.00	29.823 
11:50	85.1	85.1	94.1	73	75.4	1	4	270	0.00	29.823 
11:55	84.9	84.9	93.2	72	74.8	1	4	270	0.00	29.823 
12:00	84.9	84.9	93.6	73	75.3	0	1	270	0.00	29.821 
12:05	84.9	84.9	93.6	73	75.3	1	2	270	0.00	29.821 
12:10	84.9	84.9	93.6	73	75.3	1	3	270	0.00	29.821 
12:15	84.9	84.9	94.0	74	75.7	1	3	292	0.00	29.813 
12:20	85.1	85.1	94.1	73	75.4	1	3	338	0.00	29.813 
12:25	85.1	85.1	93.7	72	75.0	0	2	315	0.00	29.813 
12:30	84.7	84.7	92.8	72	74.6	1	5	315	0.00	29.823 
12:35	84.3	84.3	92.2	73	74.7	1	3	315	0.00	29.823 
12:40	84.0	84.0	92.2	75	75.2	1	2	315	0.00	29.823 
12:45	83.8	83.8	91.7	75	75.0	0	2	315	0.00	29.806 
12:50	83.6	83.6	91.5	76	75.2	0	4	315	0.00	29.806 
12:55	83.4	83.4	91.0	76	75.0	1	2	315	0.00	29.806 
13:00	83.0	83.0	90.4	77	75.0	0	2	315	0.00	29.810 
13:05	82.8	82.8	89.9	77	74.8	1	2	315	0.00	29.810 
13:10	82.6	82.6	89.4	77	74.6	1	5	292	0.00	29.810 
13:15	82.6	82.6	89.7	78	75.0	1	3	292	0.00	29.804 
13:20	82.4	82.4	89.2	78	74.8	1	4	292	0.00	29.804 
13:25	82.0	82.0	88.8	80	75.2	2	5	270	0.00	29.804 
13:30	81.6	81.6	88.1	81	75.2	2	5	270	0.00	29.822 
13:35	81.2	81.2	87.5	83	75.5	2	5	270	0.00	29.822 
13:40	79.4	79.4	82.9	79	72.3	5	11	270	0.02	29.822 
13:45	75.8	75.8	76.8	79	68.8	3	9	270	0.06	29.781 
13:50	73.9	73.9	73.9	79	67.0	2	5	248	0.01	29.781 
13:55	72.1	72.1	72.1	80	65.6	2	9	248	0.00	29.781 
14:00	70.6	70.6	70.6	81	64.5	4	10	270	0.00	29.809 
14:05	69.8	69.8	69.8	82	64.0	2	5	248	0.00	29.809 
14:10	69.3	69.3	69.3	84	64.2	1	3	248	0.00	29.809 
14:15	69.1	69.1	69.1	84	64.1	2	5	270	0.00	29.854 
14:20	69.1	69.1	69.1	84	64.1	1	3	270	0.00	29.854 
14:25	69.1	69.1	69.1	84	64.1	1	3	270	0.00	29.854 
14:30	69.3	69.3	69.3	85	64.6	1	3	270	0.00	29.929 
14:35	69.6	69.6	69.6	85	64.9	1	5	292	0.00	29.929 
14:40	69.9	69.9	69.9	86	65.5	1	4	292	0.00	29.929 
14:45	70.4	70.4	70.4	85	65.7	2	7	270	0.00	29.946 
14:50	70.8	70.8	70.8	85	66.1	3	10	248	0.00	29.946 
14:55	70.6	70.6	70.6	85	65.9	3	13	270	0.00	29.946 
15:00	70.3	70.3	70.3	85	65.6	3	11	270	0.01	29.946 
15:05	69.8	69.8	69.8	87	65.7	1	6	248	0.02	29.946 
15:10	69.1	69.1	69.1	88	65.4	2	5	270	0.00	29.946 
15:15	68.6	68.6	68.6	89	65.2	2	6	270	0.00	29.934 
15:20	68.4	68.4	68.4	90	65.3	2	6	270	0.01	29.934 
15:25	68.4	68.4	68.4	90	65.3	2	6	225	0.00	29.934 
15:30	68.6	68.6	68.6	91	65.9	2	6	270	0.00	29.908 
15:35	68.6	68.6	68.6	91	65.9	2	6	270	0.02	29.908 
15:40	68.6	68.6	68.6	92	66.2	3	6	270	0.00	29.908 
15:45	68.8	68.8	68.8	92	66.4	4	9	292	0.00	29.886 
15:50	69.3	69.3	69.3	94	67.5	4	7	270	0.00	29.886 
15:55	69.9	69.9	69.9	92	67.5	3	7	292	0.00	29.886 
16:00	70.3	70.3	70.3	92	67.9	4	7	270	0.00	29.869 
16:05	70.8	70.8	70.8	92	68.4	3	6	270	0.00	29.869 
16:10	71.3	71.3	71.3	91	68.5	3	6	270	0.00	29.869 
16:15	72.0	72.0	72.0	89	68.6	4	9	270	0.00	29.850 
16:20	73.2	73.2	73.2	87	69.1	3	7	270	0.00	29.850 
16:25	74.0	74.0	74.0	83	68.5	4	6	270	0.00	29.850 
16:30	75.1	75.1	75.7	80	68.5	4	10	270	0.00	29.831 
16:35	76.1	76.1	77.4	77	68.3	3	7	270	0.00	29.831 
16:40	77.2	77.2	79.0	75	68.6	4	8	270	0.00	29.831 
16:45	78.1	78.1	80.3	75	69.5	3	6	270	0.00	29.807 
16:50	78.6	78.6	81.0	73	69.2	4	6	270	0.00	29.807 
16:55	79.0	79.0	81.6	72	69.2	4	6	292	0.00	29.807 
17:00	79.4	79.4	82.2	72	69.6	3	6	292	0.00	29.795 
17:05	79.6	79.6	82.1	68	68.1	4	9	315	0.00	29.795 
17:10	79.8	79.8	82.4	68	68.3	4	9	270	0.00	29.795 
17:15	79.8	79.8	82.5	69	68.7	4	7	315	0.00	29.793 
17:20	79.8	79.8	82.6	70	69.1	3	7	270	0.00	29.793 
17:25	79.8	79.8	82.7	71	69.5	3	6	315	0.00	29.793 
17:30	79.6	79.6	82.5	72	69.8	3	7	292	0.00	29.794 
17:35	79.8	79.8	83.0	73	70.4	3	7	315	0.00	29.794 
17:40	80.3	80.3	83.7	72	70.4	2	4	292	0.00	29.794 
17:45	80.3	80.3	83.4	70	69.6	3	6	270	0.00	29.798 
17:50	80.1	80.1	83.2	71	69.8	3	7	292	0.00	29.798 
17:55	79.8	79.8	82.9	72	69.9	3	6	338	0.00	29.798 
18:00	79.4	79.4	82.3	73	70.0	3	5	315	0.00	29.802 
18:05	79.4	79.4	82.3	73	70.0	3	7	292	0.00	29.802 
18:10	79.0	79.0	81.6	72	69.2	2	5	270	0.00	29.802 
18:15	79.2	79.2	81.9	72	69.4	2	6	292	0.00	29.809 
18:20	79.2	79.2	81.9	72	69.4	3	7	292	0.00	29.809 
18:25	78.8	78.8	81.2	71	68.6	2	5	292	0.00	29.809 
18:30	78.5	78.5	80.7	70	67.9	3	7	338	0.00	29.813 
18:35	78.3	78.3	80.4	69	67.3	2	6	315	0.00	29.813 
18:40	78.1	78.1	79.9	64	64.9	2	5	0	0.00	29.813 
18:45	78.1	78.1	79.9	64	64.9	1	5	315	0.00	29.820 
18:50	77.9	77.9	79.6	62	63.8	2	5	292	0.00	29.820 
18:55	78.1	78.1	79.9	62	64.0	2	7	292	0.00	29.820 
19:00	78.1	78.1	79.9	62	64.0	2	4	315	0.00	29.824 
19:05	78.3	78.3	80.1	63	64.6	1	3	315	0.00	29.824 
19:10	78.1	78.1	79.8	61	63.5	1	4	315	0.00	29.824 
19:15	78.1	78.1	79.9	62	64.0	2	4	292	0.00	29.835 
19:20	77.7	77.7	79.5	64	64.5	1	3	292	0.00	29.835 
19:25	77.6	77.6	79.3	59	62.1	3	7	292	0.00	29.835 
19:30	77.6	77.6	79.3	59	62.1	2	6	292	0.00	29.846 
19:35	77.6	77.6	79.3	60	62.6	2	5	315	0.00	29.846 
19:40	77.6	77.6	79.3	61	63.1	0	2	315	0.00	29.846 
19:45	77.6	77.6	79.4	62	63.5	1	4	315	0.00	29.849 
19:50	77.2	77.2	79.0	61	62.7	2	4	292	0.00	29.849 
19:55	77.0	77.0	78.8	60	62.0	2	5	292	0.00	29.849 
20:00	76.7	76.7	78.5	61	62.2	2	5	0	0.00	29.859 
20:05	76.3	76.3	78.2	61	61.8	2	6	315	0.00	29.859 
20:10	76.0	76.0	78.0	60	61.1	3	7	315	0.00	29.859 
20:15	75.8	75.8	77.8	61	61.4	2	5	338	0.00	29.863 
20:20	75.6	75.6	77.7	62	61.6	2	4	315	0.00	29.863 
20:25	75.4	75.4	77.6	61	61.0	3	6	338	0.00	29.863 
20:30	75.3	75.3	77.5	61	60.9	2	6	292	0.00	29.871 
20:35	75.1	75.1	77.4	61	60.7	2	6	292	0.00	29.871 
20:40	74.7	74.7	74.7	61	60.3	2	5	292	0.00	29.871 
20:45	74.4	74.4	74.4	60	59.6	2	5	292	0.00	29.880 
20:50	74.2	74.2	74.2	61	59.9	1	3	292	0.00	29.880 
20:55	73.9	73.9	73.9	60	59.1	1	4	292	0.00	29.880 
21:00	73.5	73.5	73.5	60	58.7	0	3	292	0.00	29.893 
21:05	73.3	73.3	73.3	60	58.6	1	3	292	0.00	29.893 
21:10	73.0	73.0	73.0	59	57.8	0	3	292	0.00	29.893 
21:15	72.7	72.7	72.7	58	57.1	1	3	292	0.00	29.898 
21:20	72.7	72.7	72.7	58	57.1	0	2	292	0.00	29.898 
21:25	72.3	72.3	72.3	58	56.7	0	3	292	0.00	29.898 
21:30	72.1	72.1	72.1	58	56.5	0	1	292	0.00	29.910 
21:35	71.8	71.8	71.8	59	56.7	0	1	292	0.00	29.910 
21:40	71.5	71.5	71.5	60	56.9	0	0	---	0.00	29.910 
21:45	71.3	71.3	71.3	61	57.1	0	0	---	0.00	29.915 
21:50	70.9	70.9	70.9	62	57.2	0	0	---	0.00	29.915 
21:55	70.6	70.6	70.6	63	57.4	0	0	---	0.00	29.915 
22:00	70.4	70.4	70.4	64	57.6	0	0	---	0.00	29.924 
22:05	69.9	69.9	69.9	66	58.0	0	0	---	0.00	29.924 
22:10	69.4	69.4	69.4	67	58.0	0	0	---	0.00	29.924 
22:15	68.9	68.9	68.9	67	57.5	0	0	---	0.00	29.932 
22:20	68.6	68.6	68.6	68	57.6	0	0	---	0.00	29.932 
22:25	68.4	68.4	68.4	68	57.4	0	0	---	0.00	29.932 
22:30	68.1	68.1	68.1	69	57.5	0	0	---	0.00	29.934 
22:35	67.9	67.9	67.9	69	57.3	0	0	---	0.00	29.934 
22:40	67.6	67.6	67.6	69	57.1	0	0	---	0.00	29.934 
22:45	67.3	67.3	67.3	69	56.8	0	0	---	0.00	29.944 
22:50	66.9	66.9	66.9	70	56.8	0	0	---	0.00	29.944 
22:55	66.8	66.8	66.8	71	57.1	0	0	---	0.00	29.944 
23:00	66.4	66.4	66.4	73	57.5	0	0	---	0.00	29.949 
23:05	66.1	66.1	66.1	75	57.9	0	0	---	0.00	29.949 
23:10	65.8	65.8	65.8	75	57.6	0	0	---	0.00	29.949 
23:15	65.3	65.3	65.3	75	57.2	0	0	---	0.00	29.957 
23:20	65.2	65.2	65.2	76	57.4	0	0	---	0.00	29.957 
23:25	64.8	64.8	64.8	76	57.0	0	0	---	0.00	29.957 
23:30	64.5	64.5	64.5	77	57.1	0	0	---	0.00	29.961 
23:35	64.3	64.3	64.3	77	56.9	0	0	---	0.00	29.961 
23:40	64.2	64.2	64.2	77	56.8	0	0	---	0.00	29.961 
23:45	64.0	64.0	64.0	77	56.6	0	0	---	0.00	29.964 
23:50	63.9	63.9	63.9	78	56.9	0	0	---	0.00	29.964 
23:55	63.7	63.7	63.7	78	56.7	0	0	---	0.00	29.964 

CoCoRaHS
IN-AL-39
A2 Web Hosting
Creative Commons License
GoDaddy
search engine by freefind advanced

loaded 2018-11-17 13:02:23 • last modified 2010-11-18 10:43:29
Privacy PolicyDisclaimer
• wx.awcolley.com is powered by PmWiki v.2002016 •
• all content (unless otherwise noted) © 2018 A W Colley